createdAt,value
2022-12-19T00:00:44.607Z,49.22
2022-12-19T00:03:12.811Z,49.92
2022-12-19T00:05:41.988Z,49.83
2022-12-19T00:08:18.161Z,49.95
2022-12-19T00:10:56.618Z,49.15
2022-12-19T00:13:25.462Z,49.96
2022-12-19T00:15:53.656Z,49.79
2022-12-19T00:18:22.466Z,49.49
2022-12-19T00:20:58.484Z,49.83
2022-12-19T00:23:27.345Z,48.84
2022-12-19T00:25:56.810Z,49.42
2022-12-19T00:28:24.957Z,48.87
2022-12-19T00:30:55.188Z,48.95
2022-12-19T00:33:24.472Z,49.77
2022-12-19T00:35:52.487Z,49.94
2022-12-19T00:38:20.704Z,49.63
2022-12-19T00:40:48.823Z,49.60
2022-12-19T00:43:18.278Z,49.55
2022-12-19T00:45:46.463Z,49.69
2022-12-19T00:48:14.729Z,48.97
2022-12-19T00:50:45.645Z,49.38
2022-12-19T00:53:13.848Z,49.67
2022-12-19T00:55:41.905Z,49.21
2022-12-19T00:58:09.907Z,48.90
2022-12-19T01:00:39.581Z,48.98
2022-12-19T01:03:10.325Z,48.83
2022-12-19T01:05:42.031Z,49.05
2022-12-19T01:08:10.309Z,49.50
2022-12-19T01:10:38.530Z,49.18
2022-12-19T01:13:05.640Z,49.05
2022-12-19T01:15:33.697Z,49.67
2022-12-19T01:18:03.607Z,49.62
2022-12-19T01:20:31.785Z,49.50
2022-12-19T01:23:00.820Z,49.12
2022-12-19T01:25:29.463Z,49.04
2022-12-19T01:27:58.312Z,49.41
2022-12-19T01:30:27.624Z,49.16
2022-12-19T01:32:58.411Z,49.18
2022-12-19T01:35:28.069Z,49.11
2022-12-19T01:38:07.638Z,48.97
2022-12-19T01:40:38.956Z,49.41
2022-12-19T01:43:07.510Z,48.73
2022-12-19T01:45:42.130Z,49.66
2022-12-19T01:48:21.669Z,49.36
2022-12-19T01:51:02.098Z,48.73
2022-12-19T01:53:37.317Z,49.47
2022-12-19T01:56:18.773Z,48.67
2022-12-19T01:58:47.790Z,48.93
2022-12-19T02:01:18.387Z,49.49
2022-12-19T02:03:47.201Z,49.95
2022-12-19T02:06:16.728Z,49.90
2022-12-19T02:08:47.565Z,49.55
2022-12-19T02:11:15.744Z,49.27
2022-12-19T02:13:45.865Z,49.92
2022-12-19T02:16:25.392Z,49.19
2022-12-19T02:19:05.625Z,48.61
2022-12-19T02:21:54.611Z,49.15
2022-12-19T02:24:49.755Z,49.40
2022-12-19T02:27:44.797Z,48.95
2022-12-19T02:30:15.588Z,49.21
2022-12-19T02:32:52.152Z,49.25
2022-12-19T02:35:27.599Z,49.63
2022-12-19T02:38:08.430Z,49.23
2022-12-19T02:40:43.644Z,50.25
2022-12-19T02:43:40.053Z,49.23
2022-12-19T02:46:08.894Z,49.11
2022-12-19T02:48:39.261Z,49.05
2022-12-19T02:51:07.616Z,49.29
2022-12-19T02:53:38.400Z,49.41
2022-12-19T02:56:26.134Z,49.28
2022-12-19T02:59:10.314Z,49.54
2022-12-19T03:01:46.932Z,49.30
2022-12-19T03:04:27.760Z,48.68
2022-12-19T03:07:01.854Z,48.54
2022-12-19T03:09:39.293Z,48.44
2022-12-19T03:12:17.366Z,48.66
2022-12-19T03:14:47.306Z,48.90
2022-12-19T03:17:16.095Z,48.88
2022-12-19T03:19:46.038Z,49.20
2022-12-19T03:22:14.233Z,48.63
2022-12-19T03:24:42.424Z,48.28
2022-12-19T03:27:13.976Z,48.14
2022-12-19T03:29:46.786Z,49.36
2022-12-19T03:32:16.597Z,48.46
2022-12-19T03:34:49.256Z,48.54
2022-12-19T03:37:21.189Z,48.83
2022-12-19T03:39:53.454Z,48.94
2022-12-19T03:42:42.207Z,49.41
2022-12-19T03:45:12.728Z,49.07
2022-12-19T03:47:43.460Z,49.12
2022-12-19T03:50:13.232Z,48.69
2022-12-19T03:52:49.551Z,48.52
2022-12-19T03:55:20.501Z,48.59
2022-12-19T03:57:54.770Z,48.62
2022-12-19T04:00:25.402Z,49.18
2022-12-19T04:02:57.083Z,48.90
2022-12-19T04:05:28.804Z,49.05
2022-12-19T04:07:59.814Z,48.23
2022-12-19T04:10:29.614Z,48.50
2022-12-19T04:13:01.517Z,48.14
2022-12-19T04:15:35.977Z,48.81
2022-12-19T04:18:08.368Z,49.61
2022-12-19T04:20:39.757Z,49.44
2022-12-19T04:23:12.879Z,49.03
2022-12-19T04:25:44.032Z,48.90
2022-12-19T04:28:16.388Z,48.47
2022-12-19T04:30:46.214Z,49.15
2022-12-19T04:33:14.267Z,49.48
2022-12-19T04:35:43.860Z,49.52
2022-12-19T04:38:12.101Z,49.16
2022-12-19T04:40:41.718Z,49.21
2022-12-19T04:43:10.611Z,48.79
2022-12-19T04:45:38.878Z,49.06
2022-12-19T04:48:08.127Z,49.13
2022-12-19T04:50:37.471Z,48.26
2022-12-19T04:53:07.636Z,48.18
2022-12-19T04:55:36.323Z,48.69
2022-12-19T04:58:06.299Z,47.71
2022-12-19T05:00:34.853Z,49.26
2022-12-19T05:03:03.044Z,48.84
2022-12-19T05:05:31.149Z,48.82
2022-12-19T05:07:59.361Z,49.19
2022-12-19T05:10:28.881Z,48.56
2022-12-19T05:12:56.844Z,48.92
2022-12-19T05:15:24.910Z,49.09
2022-12-19T05:17:53.117Z,47.83
2022-12-19T05:20:21.280Z,47.88
2022-12-19T05:22:49.248Z,47.99
2022-12-19T05:25:17.354Z,47.81
2022-12-19T05:27:46.793Z,47.74
2022-12-19T05:30:15.248Z,48.19
2022-12-19T05:32:43.230Z,48.45
2022-12-19T05:35:11.224Z,48.37
2022-12-19T05:37:39.274Z,49.35
2022-12-19T05:40:08.723Z,49.31
2022-12-19T05:42:36.657Z,49.25
2022-12-19T05:45:06.777Z,50.46
2022-12-19T05:47:34.869Z,49.75
2022-12-19T05:50:03.269Z,50.80
2022-12-19T05:52:31.351Z,49.81
2022-12-19T05:54:59.336Z,49.92
2022-12-19T05:57:27.390Z,50.66
2022-12-19T05:59:55.345Z,49.62
2022-12-19T06:02:24.963Z,50.47
2022-12-19T06:04:53.490Z,50.27
2022-12-19T06:07:21.578Z,50.74
2022-12-19T06:09:49.654Z,50.36
2022-12-19T06:12:17.815Z,50.39
2022-12-19T06:14:45.843Z,51.01
2022-12-19T06:17:13.854Z,50.75
2022-12-19T06:19:43.369Z,50.44
2022-12-19T06:22:11.373Z,50.45
2022-12-19T06:24:39.598Z,50.39
2022-12-19T06:27:07.768Z,50.52
2022-12-19T06:29:35.971Z,50.70
2022-12-19T06:32:04.239Z,50.70
2022-12-19T06:35:02.606Z,50.75
2022-12-19T06:37:21.715Z,51.01
2022-12-19T06:39:51.862Z,51.43
2022-12-19T06:42:25.013Z,51.25
2022-12-19T06:44:54.364Z,51.64
2022-12-19T06:47:24.848Z,51.64
2022-12-19T06:49:52.886Z,52.04
2022-12-19T06:52:22.453Z,52.17
2022-12-19T06:54:50.580Z,51.76
2022-12-19T06:57:18.690Z,52.04
2022-12-19T06:59:46.712Z,52.40
2022-12-19T07:02:26.561Z,52.01
2022-12-19T07:05:01.841Z,52.25
2022-12-19T07:07:31.898Z,52.34
2022-12-19T07:10:00.222Z,52.35
2022-12-19T07:12:28.264Z,52.49
2022-12-19T07:14:56.361Z,52.73
2022-12-19T07:17:26.878Z,52.41
2022-12-19T07:19:56.871Z,52.54
2022-12-19T07:22:25.986Z,52.53
2022-12-19T07:24:56.198Z,52.52
2022-12-19T07:27:25.105Z,52.56
2022-12-19T07:29:55.750Z,53.08
2022-12-19T07:32:24.036Z,52.79
2022-12-19T07:34:54.849Z,53.00
2022-12-19T07:37:22.934Z,53.49
2022-12-19T07:39:52.620Z,53.37
2022-12-19T07:42:22.155Z,53.65
2022-12-19T07:44:50.256Z,53.55
2022-12-19T07:47:18.481Z,53.53
2022-12-19T07:49:46.547Z,53.86
2022-12-19T07:52:14.596Z,53.79
2022-12-19T07:54:42.737Z,53.71
2022-12-19T07:57:10.753Z,53.87
2022-12-19T07:59:40.162Z,53.22
2022-12-19T08:02:08.500Z,53.32
2022-12-19T08:04:36.619Z,53.50
2022-12-19T08:07:04.971Z,52.90
2022-12-19T08:09:33.219Z,53.08
2022-12-19T08:12:01.311Z,52.31
2022-12-19T08:14:29.535Z,53.02
2022-12-19T08:19:47.118Z,52.11
2022-12-19T08:22:15.220Z,52.86
2022-12-19T08:24:43.273Z,52.56
2022-12-19T08:27:11.872Z,51.92
2022-12-19T08:29:39.925Z,52.52
2022-12-19T08:32:09.496Z,52.14
2022-12-19T08:34:37.612Z,52.51
2022-12-19T08:37:05.607Z,52.29
2022-12-19T08:39:33.893Z,52.17
2022-12-19T08:42:02.910Z,51.26
2022-12-19T08:44:31.008Z,51.38
2022-12-19T08:46:58.993Z,50.64
2022-12-19T08:49:28.656Z,50.91
2022-12-19T08:51:56.755Z,50.28
2022-12-19T08:54:24.850Z,50.07
2022-12-19T08:56:52.881Z,50.39
2022-12-19T08:59:25.972Z,49.55
2022-12-19T09:02:00.618Z,50.36
2022-12-19T09:05:10.791Z,49.71
2022-12-19T09:07:18.905Z,49.46
2022-12-19T09:09:46.927Z,50.04
2022-12-19T09:12:16.180Z,49.10
2022-12-19T09:14:45.385Z,49.61
2022-12-19T09:17:13.663Z,49.16
2022-12-19T09:19:47.387Z,48.83
2022-12-19T09:22:16.432Z,48.54
2022-12-19T09:24:44.636Z,48.76
2022-12-19T09:27:12.641Z,49.37
2022-12-19T09:29:42.577Z,49.64
2022-12-19T09:32:10.653Z,48.95
2022-12-19T09:34:39.191Z,48.85
2022-12-19T09:37:15.968Z,49.44
2022-12-19T09:39:46.542Z,49.59
2022-12-19T09:42:56.387Z,49.34
2022-12-19T09:45:40.457Z,48.90
2022-12-19T09:48:17.789Z,48.19
2022-12-19T09:51:10.667Z,47.96
2022-12-19T09:53:54.889Z,48.04
2022-12-19T09:56:24.858Z,48.39
2022-12-19T09:58:57.239Z,47.38
2022-12-19T10:01:30.766Z,47.40
2022-12-19T10:04:04.624Z,47.97
2022-12-19T10:07:16.033Z,47.26
2022-12-19T10:12:10.703Z,47.46
2022-12-19T10:12:44.876Z,47.32
2022-12-19T10:15:27.470Z,46.99
2022-12-19T10:18:15.526Z,47.38
2022-12-19T10:20:51.450Z,46.86
2022-12-19T10:23:57.477Z,47.35
2022-12-19T10:26:31.432Z,46.98
2022-12-19T10:29:17.679Z,47.01
2022-12-19T10:31:55.104Z,46.56
2022-12-19T10:34:25.355Z,46.68
2022-12-19T10:37:26.946Z,46.99
2022-12-19T10:39:55.778Z,47.27
2022-12-19T10:42:34.747Z,47.54
2022-12-19T10:45:06.445Z,47.73
2022-12-19T10:47:34.708Z,47.67
2022-12-19T10:50:09.232Z,47.94
2022-12-19T10:52:55.077Z,47.85
2022-12-19T10:55:30.405Z,47.16
2022-12-19T10:58:02.631Z,47.09
2022-12-19T11:00:33.082Z,47.28
2022-12-19T11:03:19.226Z,46.55
2022-12-19T11:05:52.616Z,46.36
2022-12-19T11:08:28.354Z,46.49
2022-12-19T11:12:51.140Z,46.24
2022-12-19T11:18:44.271Z,45.91
2022-12-19T11:21:49.864Z,45.55
2022-12-19T11:29:29.802Z,45.29
2022-12-19T11:29:33.803Z,45.22
2022-12-19T11:29:42.226Z,44.89
2022-12-19T11:30:37.984Z,45.32
2022-12-19T11:33:55.584Z,44.70
2022-12-19T11:36:32.621Z,44.57
2022-12-19T11:39:01.065Z,43.94
2022-12-19T11:41:40.441Z,44.44
2022-12-19T11:44:19.768Z,44.41
2022-12-19T11:46:58.200Z,44.18
2022-12-19T11:49:31.547Z,44.92
2022-12-19T11:52:54.047Z,44.94
2022-12-19T11:55:17.940Z,45.29
2022-12-19T11:57:47.144Z,45.53
2022-12-19T12:00:20.518Z,45.42
2022-12-19T12:03:19.178Z,45.39
2022-12-19T12:05:48.686Z,45.15
2022-12-19T12:12:10.473Z,45.15
2022-12-19T12:14:49.792Z,44.92
2022-12-19T12:20:23.593Z,44.71
2022-12-19T12:31:00.904Z,44.17
2022-12-19T12:31:30.604Z,44.06
2022-12-19T12:31:46.584Z,44.71
2022-12-19T12:31:56.046Z,44.17
2022-12-19T12:32:05.070Z,44.51
2022-12-19T12:35:43.566Z,45.13
2022-12-19T12:38:43.279Z,44.99
2022-12-19T12:41:45.250Z,44.92
2022-12-19T12:44:14.486Z,45.48
2022-12-19T12:46:48.047Z,44.67
2022-12-19T12:49:34.521Z,44.78
2022-12-19T12:52:04.468Z,44.75
2022-12-19T12:54:39.129Z,44.90
2022-12-19T12:57:07.416Z,44.28
2022-12-19T12:59:35.481Z,44.58
2022-12-19T13:02:18.222Z,44.61
2022-12-19T13:04:56.920Z,44.13
2022-12-19T13:07:42.558Z,44.34
2022-12-19T13:10:25.806Z,43.96
2022-12-19T13:13:02.529Z,44.09
2022-12-19T13:15:39.323Z,44.24
2022-12-19T13:18:33.659Z,44.24
2022-12-19T13:21:04.360Z,43.74
2022-12-19T13:23:47.622Z,44.44
2022-12-19T13:26:46.926Z,44.12
2022-12-19T13:29:54.491Z,44.46
2022-12-19T13:32:24.141Z,44.65
2022-12-19T13:34:57.540Z,44.80
2022-12-19T13:39:56.781Z,45.06
2022-12-19T13:40:35.387Z,44.19
2022-12-19T13:43:34.130Z,44.30
2022-12-19T13:46:04.234Z,44.25
2022-12-19T13:48:36.541Z,43.98
2022-12-19T13:51:07.507Z,44.33
2022-12-19T13:53:36.968Z,44.50
2022-12-19T13:56:07.109Z,44.62
2022-12-19T13:58:46.402Z,43.96
2022-12-19T14:01:21.540Z,44.09
2022-12-19T14:03:52.854Z,44.31
2022-12-19T14:06:23.640Z,43.97
2022-12-19T14:09:41.469Z,44.15
2022-12-19T14:13:45.960Z,44.44
2022-12-19T14:15:12.958Z,43.98
2022-12-19T14:17:42.408Z,44.48
2022-12-19T14:22:06.687Z,43.92
2022-12-19T14:23:07.949Z,44.69
2022-12-19T14:28:17.528Z,44.56
2022-12-19T14:28:39.343Z,43.71
2022-12-19T14:31:14.271Z,44.60
2022-12-19T14:34:11.115Z,44.30
2022-12-19T14:36:35.811Z,44.27
2022-12-19T14:39:26.900Z,43.86
2022-12-19T14:42:11.802Z,44.56
2022-12-19T14:52:08.673Z,44.56
2022-12-19T14:54:18.173Z,44.66
2022-12-19T14:54:20.953Z,43.96
2022-12-19T14:54:41.913Z,44.58
2022-12-19T14:56:26.780Z,44.47
2022-12-19T14:59:00.663Z,43.78
2022-12-19T15:01:30.822Z,43.95
2022-12-19T15:04:50.456Z,44.24
2022-12-19T15:07:08.388Z,44.50
2022-12-19T15:11:08.740Z,43.99
2022-12-19T15:14:50.871Z,44.58
2022-12-19T15:15:56.576Z,44.96
2022-12-19T15:18:28.077Z,45.30
2022-12-19T15:20:59.328Z,44.79
2022-12-19T15:23:28.277Z,44.63
2022-12-19T15:26:06.001Z,44.61
2022-12-19T15:28:40.124Z,45.47
2022-12-19T15:31:19.664Z,45.16
2022-12-19T15:34:23.185Z,45.47
2022-12-19T15:36:37.432Z,45.47
2022-12-19T15:39:05.909Z,45.34
2022-12-19T15:41:34.036Z,45.90
2022-12-19T15:44:09.906Z,45.41
2022-12-19T15:46:44.590Z,45.34
2022-12-19T15:49:17.698Z,45.44
2022-12-19T15:51:47.592Z,45.05
2022-12-19T15:57:04.650Z,45.12
2022-12-19T15:59:37.470Z,44.94
2022-12-19T16:02:16.861Z,45.09
2022-12-19T16:04:46.732Z,45.08
2022-12-19T16:07:18.731Z,44.86
2022-12-19T16:09:47.380Z,45.04
2022-12-19T16:12:18.045Z,45.05
2022-12-19T16:14:48.639Z,45.42
2022-12-19T16:17:21.977Z,45.92
2022-12-19T16:19:50.494Z,46.12
2022-12-19T16:22:22.553Z,46.45
2022-12-19T16:24:51.456Z,46.13
2022-12-19T16:27:24.998Z,46.90
2022-12-19T16:29:54.046Z,46.59
2022-12-19T16:32:24.158Z,47.53
2022-12-19T16:34:52.879Z,47.76
2022-12-19T16:37:27.207Z,47.74
2022-12-19T16:39:56.812Z,47.42
2022-12-19T16:42:25.016Z,48.04
2022-12-19T16:44:53.662Z,48.42
2022-12-19T16:47:21.796Z,47.65
2022-12-19T16:49:50.197Z,48.79
2022-12-19T16:52:18.326Z,47.64
2022-12-19T16:54:47.771Z,48.58
2022-12-19T16:57:21.002Z,48.31
2022-12-19T16:59:49.927Z,47.51
2022-12-19T17:02:43.000Z,48.10
2022-12-19T17:05:20.196Z,48.03
2022-12-19T17:07:49.454Z,47.73
2022-12-19T17:10:25.941Z,48.24
2022-12-19T17:12:55.816Z,48.85
2022-12-19T17:15:28.567Z,48.44
2022-12-19T17:17:59.346Z,48.72
2022-12-19T17:20:33.313Z,48.79
2022-12-19T17:23:01.515Z,49.88
2022-12-19T17:25:31.974Z,50.24
2022-12-19T17:27:59.965Z,49.63
2022-12-19T17:30:28.182Z,49.68
2022-12-19T17:32:57.201Z,50.53
2022-12-19T17:35:28.437Z,50.96
2022-12-19T17:37:58.057Z,50.25
2022-12-19T17:40:28.101Z,51.36
2022-12-19T17:42:57.858Z,51.64
2022-12-19T17:45:26.854Z,50.60
2022-12-19T17:48:02.245Z,51.36
2022-12-19T17:50:33.198Z,51.05
2022-12-19T17:53:01.300Z,51.17
2022-12-19T17:55:30.988Z,52.36
2022-12-19T17:58:00.588Z,52.34
2022-12-19T18:00:31.081Z,51.58
2022-12-19T18:03:02.954Z,52.07
2022-12-19T18:05:35.916Z,52.39
2022-12-19T18:08:04.937Z,52.21
2022-12-19T18:10:33.512Z,52.91
2022-12-19T18:13:02.967Z,51.82
2022-12-19T18:15:31.165Z,51.84
2022-12-19T18:18:00.149Z,52.23
2022-12-19T18:20:32.194Z,52.51
2022-12-19T18:23:01.496Z,52.92
2022-12-19T18:25:32.078Z,52.55
2022-12-19T18:28:00.278Z,51.84
2022-12-19T18:30:29.772Z,51.85
2022-12-19T18:32:59.475Z,51.85
2022-12-19T18:35:37.469Z,52.36
2022-12-19T18:38:08.695Z,53.06
2022-12-19T18:40:37.062Z,52.24
2022-12-19T18:43:05.788Z,52.90
2022-12-19T18:45:37.343Z,52.11
2022-12-19T18:48:09.128Z,52.39
2022-12-19T18:50:37.244Z,51.78
2022-12-19T18:53:12.003Z,51.71
2022-12-19T18:55:40.105Z,52.08
2022-12-19T18:58:08.295Z,51.50
2022-12-19T19:00:39.961Z,50.75
2022-12-19T19:03:14.817Z,50.85
2022-12-19T19:05:43.588Z,52.14
2022-12-19T19:08:18.587Z,51.57
2022-12-19T19:10:48.887Z,50.93
2022-12-19T19:13:18.637Z,51.94
2022-12-19T19:15:51.520Z,51.48
2022-12-19T19:18:23.638Z,51.00
2022-12-19T19:21:00.492Z,51.16
2022-12-19T19:23:34.834Z,51.61
2022-12-19T19:26:03.097Z,50.74
2022-12-19T19:28:31.242Z,50.96
2022-12-19T19:31:02.286Z,52.22
2022-12-19T19:33:33.850Z,51.32
2022-12-19T19:36:11.959Z,51.36
2022-12-19T19:38:44.142Z,51.31
2022-12-19T19:41:12.748Z,51.96
2022-12-19T19:43:41.401Z,50.85
2022-12-19T19:46:11.131Z,52.21
2022-12-19T19:48:41.433Z,52.00
2022-12-19T19:51:25.535Z,52.24
2022-12-19T19:53:53.771Z,51.91
2022-12-19T19:56:21.978Z,50.93
2022-12-19T19:58:50.196Z,51.25
2022-12-19T20:01:18.567Z,50.93
2022-12-19T20:03:47.108Z,52.00
2022-12-19T20:06:15.427Z,51.86
2022-12-19T20:08:44.995Z,52.63
2022-12-19T20:11:13.904Z,52.56
2022-12-19T20:13:42.085Z,52.80
2022-12-19T20:16:12.485Z,53.00
2022-12-19T20:18:41.744Z,52.77
2022-12-19T20:21:13.191Z,53.40
2022-12-19T20:23:42.832Z,52.60
2022-12-19T20:26:13.380Z,53.57
2022-12-19T20:28:48.471Z,53.12
2022-12-19T20:31:17.423Z,52.47
2022-12-19T20:33:46.438Z,51.99
2022-12-19T20:36:15.521Z,52.78
2022-12-19T20:38:44.045Z,52.98
2022-12-19T20:41:13.696Z,52.53
2022-12-19T20:43:42.323Z,52.47
2022-12-19T20:46:13.000Z,52.80
2022-12-19T20:48:42.081Z,52.70
2022-12-19T20:51:11.058Z,52.26
2022-12-19T20:53:41.664Z,53.01
2022-12-19T20:56:12.511Z,53.69
2022-12-19T20:58:42.834Z,54.20
2022-12-19T21:01:13.942Z,54.42
2022-12-19T21:03:44.053Z,54.25
2022-12-19T21:06:14.324Z,54.50
2022-12-19T21:08:43.347Z,54.70
2022-12-19T21:11:12.677Z,54.54
2022-12-19T21:13:43.822Z,55.30
2022-12-19T21:16:14.642Z,54.78
2022-12-19T21:18:45.300Z,55.20
2022-12-19T21:21:16.397Z,55.47
2022-12-19T21:23:45.618Z,56.27
2022-12-19T21:26:14.515Z,55.83
2022-12-19T21:28:44.804Z,55.83
2022-12-19T21:31:17.568Z,56.35
2022-12-19T21:33:47.382Z,56.08
2022-12-19T21:36:19.237Z,55.46
2022-12-19T21:38:48.455Z,55.90
2022-12-19T21:41:19.489Z,55.09
2022-12-19T21:43:52.555Z,54.63
2022-12-19T21:46:22.852Z,55.15
2022-12-19T21:48:52.503Z,54.96
2022-12-19T21:51:22.275Z,54.98
2022-12-19T21:53:54.596Z,54.48
2022-12-19T21:56:26.034Z,54.88
2022-12-19T21:58:57.536Z,55.07
2022-12-19T22:01:26.598Z,54.69
2022-12-19T22:03:59.972Z,54.79
2022-12-19T22:06:30.973Z,55.75
2022-12-19T22:08:59.750Z,55.46
2022-12-19T22:11:29.779Z,56.34
2022-12-19T22:14:00.568Z,56.06
2022-12-19T22:16:29.376Z,56.55
2022-12-19T22:18:57.726Z,56.36
2022-12-19T22:21:26.520Z,56.49
2022-12-19T22:23:58.921Z,56.18
2022-12-19T22:26:28.973Z,56.59
2022-12-19T22:28:59.794Z,56.70
2022-12-19T22:31:30.127Z,56.76
2022-12-19T22:34:00.269Z,56.72
2022-12-19T22:36:29.865Z,56.73
2022-12-19T22:38:59.572Z,57.44
2022-12-19T22:41:28.347Z,57.50
2022-12-19T22:43:58.702Z,57.07
2022-12-19T22:46:30.834Z,57.57
2022-12-19T22:49:01.275Z,57.49
2022-12-19T22:51:31.458Z,57.37
2022-12-19T22:54:01.880Z,57.91
2022-12-19T22:56:32.586Z,58.07
2022-12-19T22:59:04.773Z,58.20
2022-12-19T23:01:35.156Z,57.85
2022-12-19T23:04:04.170Z,57.35
2022-12-19T23:06:34.799Z,57.10
2022-12-19T23:09:03.777Z,57.58
2022-12-19T23:11:34.221Z,57.71
2022-12-19T23:14:05.511Z,58.16
2022-12-19T23:16:33.974Z,58.50
2022-12-19T23:19:02.287Z,58.32
2022-12-19T23:21:30.471Z,58.04
2022-12-19T23:23:58.690Z,58.21
2022-12-19T23:26:29.316Z,58.44
2022-12-19T23:29:00.091Z,58.89
2022-12-19T23:31:30.996Z,58.56
2022-12-19T23:33:59.890Z,59.09
2022-12-19T23:37:08.418Z,59.34
2022-12-19T23:39:17.136Z,59.52
2022-12-19T23:41:45.566Z,59.61
2022-12-19T23:44:14.197Z,59.46
2022-12-19T23:46:43.790Z,59.58
2022-12-19T23:49:12.161Z,59.34
2022-12-19T23:51:40.508Z,59.84
2022-12-19T23:54:09.220Z,59.87
2022-12-19T23:56:37.607Z,59.44
2022-12-19T23:59:05.863Z,59.77
